sensor_id;sensor_type;location;lat;lon;timestamp;pressure;altitude;pressure_sealevel;temperature;humidity
51439;BME280;38816;51.142;-0.974;2024-02-21T00:01:30;100534.81;;;8.54;100.00
51439;BME280;38816;51.142;-0.974;2024-02-21T00:03:55;100528.81;;;8.53;100.00
51439;BME280;38816;51.142;-0.974;2024-02-21T00:06:21;100522.88;;;8.54;100.00
51439;BME280;38816;51.142;-0.974;2024-02-21T00:08:46;100526.28;;;8.55;100.00
51439;BME280;38816;51.142;-0.974;2024-02-21T00:11:12;100522.94;;;8.56;100.00
51439;BME280;38816;51.142;-0.974;2024-02-21T00:13:37;100522.97;;;8.57;100.00
51439;BME280;38816;51.142;-0.974;2024-02-21T00:16:03;100517.97;;;8.62;100.00
51439;BME280;38816;51.142;-0.974;2024-02-21T00:18:28;100509.34;;;8.60;100.00
51439;BME280;38816;51.142;-0.974;2024-02-21T00:20:54;100512.72;;;8.57;100.00
51439;BME280;38816;51.142;-0.974;2024-02-21T00:23:20;100511.13;;;8.61;100.00
51439;BME280;38816;51.142;-0.974;2024-02-21T00:25:45;100502.47;;;8.57;100.00
51439;BME280;38816;51.142;-0.974;2024-02-21T00:28:11;100505.03;;;8.57;100.00
51439;BME280;38816;51.142;-0.974;2024-02-21T00:30:36;100502.50;;;8.59;100.00
51439;BME280;38816;51.142;-0.974;2024-02-21T00:33:03;100493.09;;;8.58;100.00
51439;BME280;38816;51.142;-0.974;2024-02-21T00:35:29;100499.06;;;8.58;100.00
51439;BME280;38816;51.142;-0.974;2024-02-21T00:37:54;100497.47;;;8.62;100.00
51439;BME280;38816;51.142;-0.974;2024-02-21T00:40:22;100496.53;;;8.60;100.00
51439;BME280;38816;51.142;-0.974;2024-02-21T00:42:48;100482.00;;;8.59;100.00
51439;BME280;38816;51.142;-0.974;2024-02-21T00:45:14;100482.88;;;8.59;100.00
51439;BME280;38816;51.142;-0.974;2024-02-21T00:47:39;100461.44;;;8.56;100.00
51439;BME280;38816;51.142;-0.974;2024-02-21T00:50:06;100458.09;;;8.60;100.00
51439;BME280;38816;51.142;-0.974;2024-02-21T00:52:32;100451.34;;;8.62;100.00
51439;BME280;38816;51.142;-0.974;2024-02-21T00:54:58;100458.09;;;8.60;100.00
51439;BME280;38816;51.142;-0.974;2024-02-21T00:57:23;100441.00;;;8.59;100.00
51439;BME280;38816;51.142;-0.974;2024-02-21T00:59:49;100432.41;;;8.57;100.00
51439;BME280;38816;51.142;-0.974;2024-02-21T01:02:14;100435.81;;;8.56;100.00
51439;BME280;38816;51.142;-0.974;2024-02-21T01:04:40;100430.69;;;8.56;100.00
51439;BME280;38816;51.142;-0.974;2024-02-21T01:07:05;100417.13;;;8.60;100.00
51439;BME280;38816;51.142;-0.974;2024-02-21T01:09:31;100417.06;;;8.57;100.00
51439;BME280;38816;51.142;-0.974;2024-02-21T01:11:56;100408.44;;;8.55;100.00
51439;BME280;38816;51.142;-0.974;2024-02-21T01:14:22;100406.75;;;8.55;100.00
51439;BME280;38816;51.142;-0.974;2024-02-21T01:16:47;100406.84;;;8.58;100.00
51439;BME280;38816;51.142;-0.974;2024-02-21T01:19:13;100394.63;;;8.50;100.00
51439;BME280;38816;51.142;-0.974;2024-02-21T01:21:38;100388.78;;;8.54;100.00
51439;BME280;38816;51.142;-0.974;2024-02-21T01:24:04;100386.09;;;8.49;100.00
51439;BME280;38816;51.142;-0.974;2024-02-21T01:26:29;100379.25;;;8.50;100.00
51439;BME280;38816;51.142;-0.974;2024-02-21T01:28:55;100393.81;;;8.51;100.00
51439;BME280;38816;51.142;-0.974;2024-02-21T01:31:20;100382.78;;;8.53;100.00
51439;BME280;38816;51.142;-0.974;2024-02-21T01:33:46;100382.75;;;8.52;100.00
51439;BME280;38816;51.142;-0.974;2024-02-21T01:36:12;100372.56;;;8.55;100.00
51439;BME280;38816;51.142;-0.974;2024-02-21T01:38:37;100370.88;;;8.55;100.00
51439;BME280;38816;51.142;-0.974;2024-02-21T01:41:03;100358.00;;;8.52;100.00
51439;BME280;38816;51.142;-0.974;2024-02-21T01:43:28;100355.44;;;8.52;100.00
51439;BME280;38816;51.142;-0.974;2024-02-21T01:45:57;100343.41;;;8.50;100.00
51439;BME280;38816;51.142;-0.974;2024-02-21T01:48:23;100338.28;;;8.50;100.00
51439;BME280;38816;51.142;-0.974;2024-02-21T01:50:49;100341.66;;;8.49;100.00
51439;BME280;38816;51.142;-0.974;2024-02-21T01:53:22;100339.13;;;8.50;100.00
51439;BME280;38816;51.142;-0.974;2024-02-21T01:55:48;100321.19;;;8.50;100.00
51439;BME280;38816;51.142;-0.974;2024-02-21T01:58:15;100313.50;;;8.50;100.00
51439;BME280;38816;51.142;-0.974;2024-02-21T02:00:45;100309.22;;;8.49;100.00
51439;BME280;38816;51.142;-0.974;2024-02-21T02:03:11;100304.97;;;8.50;100.00
51439;BME280;38816;51.142;-0.974;2024-02-21T02:05:46;100302.38;;;8.48;100.00
51439;BME280;38816;51.142;-0.974;2024-02-21T02:08:15;100298.09;;;8.47;100.00
51439;BME280;38816;51.142;-0.974;2024-02-21T02:10:42;100291.22;;;8.46;100.00
51439;BME280;38816;51.142;-0.974;2024-02-21T02:13:08;100269.94;;;8.49;100.00
51439;BME280;38816;51.142;-0.974;2024-02-21T02:18:09;100250.19;;;8.45;100.00
51439;BME280;38816;51.142;-0.974;2024-02-21T02:20:35;100215.25;;;8.47;100.00
51439;BME280;38816;51.142;-0.974;2024-02-21T02:23:12;100234.81;;;8.45;100.00
51439;BME280;38816;51.142;-0.974;2024-02-21T02:25:39;100258.72;;;8.44;100.00
51439;BME280;38816;51.142;-0.974;2024-02-21T02:28:08;100245.88;;;8.42;100.00
51439;BME280;38816;51.142;-0.974;2024-02-21T02:30:35;100252.03;;;8.50;100.00
51439;BME280;38816;51.142;-0.974;2024-02-21T02:33:04;100256.16;;;8.44;100.00
51439;BME280;38816;51.142;-0.974;2024-02-21T02:35:30;100249.31;;;8.43;100.00
51439;BME280;38816;51.142;-0.974;2024-02-21T02:37:56;100245.03;;;8.43;100.00
51439;BME280;38816;51.142;-0.974;2024-02-21T02:40:21;100238.97;;;8.40;100.00
51439;BME280;38816;51.142;-0.974;2024-02-21T02:42:47;100240.69;;;8.41;100.00
51439;BME280;38816;51.142;-0.974;2024-02-21T02:45:17;100233.81;;;8.38;100.00
51439;BME280;38816;51.142;-0.974;2024-02-21T02:47:46;100242.41;;;8.42;100.00
51439;BME280;38816;51.142;-0.974;2024-02-21T02:50:12;100227.06;;;8.42;100.00
51439;BME280;38816;51.142;-0.974;2024-02-21T02:52:38;100244.13;;;8.41;100.00
51439;BME280;38816;51.142;-0.974;2024-02-21T02:55:04;100237.28;;;8.42;100.00
51439;BME280;38816;51.142;-0.974;2024-02-21T02:57:30;100237.25;;;8.39;100.00
51439;BME280;38816;51.142;-0.974;2024-02-21T02:59:56;100223.44;;;8.33;100.00
51439;BME280;38816;51.142;-0.974;2024-02-21T03:02:21;100221.72;;;8.34;100.00
51439;BME280;38816;51.142;-0.974;2024-02-21T03:04:47;100217.47;;;8.34;100.00
51439;BME280;38816;51.142;-0.974;2024-02-21T03:07:14;100206.38;;;8.35;100.00
51439;BME280;38816;51.142;-0.974;2024-02-21T03:09:40;100204.66;;;8.34;100.00
51439;BME280;38816;51.142;-0.974;2024-02-21T03:12:06;100205.50;;;8.33;100.00
51439;BME280;38816;51.142;-0.974;2024-02-21T03:14:32;100214.06;;;8.35;100.00
51439;BME280;38816;51.142;-0.974;2024-02-21T03:16:58;100201.25;;;8.35;100.00
51439;BME280;38816;51.142;-0.974;2024-02-21T03:19:24;100197.84;;;8.35;100.00
51439;BME280;38816;51.142;-0.974;2024-02-21T03:21:50;100196.91;;;8.33;100.00
51439;BME280;38816;51.142;-0.974;2024-02-21T03:24:18;100197.81;;;8.33;100.00
51439;BME280;38816;51.142;-0.974;2024-02-21T03:26:44;100179.78;;;8.29;100.00
51439;BME280;38816;51.142;-0.974;2024-02-21T03:29:11;100188.34;;;8.31;100.00
51439;BME280;38816;51.142;-0.974;2024-02-21T03:31:37;100174.66;;;8.29;100.00
51439;BME280;38816;51.142;-0.974;2024-02-21T03:34:06;100170.41;;;8.29;100.00
51439;BME280;38816;51.142;-0.974;2024-02-21T03:36:34;100161.00;;;8.30;100.00
51439;BME280;38816;51.142;-0.974;2024-02-21T03:38:59;100153.28;;;8.28;100.00
51439;BME280;38816;51.142;-0.974;2024-02-21T03:41:25;100148.09;;;8.25;100.00
51439;BME280;38816;51.142;-0.974;2024-02-21T03:43:50;100142.03;;;8.22;100.00
51439;BME280;38816;51.142;-0.974;2024-02-21T03:46:16;100132.66;;;8.22;100.00
51439;BME280;38816;51.142;-0.974;2024-02-21T03:48:44;100119.75;;;8.19;100.00
51439;BME280;38816;51.142;-0.974;2024-02-21T03:51:10;100124.06;;;8.20;100.00
51439;BME280;38816;51.142;-0.974;2024-02-21T03:53:36;100124.06;;;8.20;100.00
51439;BME280;38816;51.142;-0.974;2024-02-21T03:56:02;100104.47;;;8.22;100.00
51439;BME280;38816;51.142;-0.974;2024-02-21T03:58:29;100114.69;;;8.21;100.00
51439;BME280;38816;51.142;-0.974;2024-02-21T04:00:55;100106.91;;;8.16;100.00
51439;BME280;38816;51.142;-0.974;2024-02-21T04:03:20;100098.31;;;8.14;100.00
51439;BME280;38816;51.142;-0.974;2024-02-21T04:05:46;100095.84;;;8.19;100.00
51439;BME280;38816;51.142;-0.974;2024-02-21T04:08:11;100085.63;;;8.19;100.00
51439;BME280;38816;51.142;-0.974;2024-02-21T04:10:37;100085.63;;;8.19;100.00
51439;BME280;38816;51.142;-0.974;2024-02-21T04:13:04;100075.34;;;8.17;100.00
51439;BME280;38816;51.142;-0.974;2024-02-21T04:15:30;100061.72;;;8.18;100.00
51439;BME280;38816;51.142;-0.974;2024-02-21T04:17:55;100063.38;;;8.16;100.00
51439;BME280;38816;51.142;-0.974;2024-02-21T04:20:21;100062.53;;;8.17;100.00
51439;BME280;38816;51.142;-0.974;2024-02-21T04:22:46;100057.41;;;8.17;100.00
51439;BME280;38816;51.142;-0.974;2024-02-21T04:25:12;100037.72;;;8.15;100.00
51439;BME280;38816;51.142;-0.974;2024-02-21T04:27:41;100034.47;;;8.20;100.00
51439;BME280;38816;51.142;-0.974;2024-02-21T04:30:07;100031.03;;;8.20;100.00
51439;BME280;38816;51.142;-0.974;2024-02-21T04:32:33;100019.91;;;8.19;100.00
51439;BME280;38816;51.142;-0.974;2024-02-21T04:34:59;100022.47;;;8.19;100.00
51439;BME280;38816;51.142;-0.974;2024-02-21T04:37:24;100015.56;;;8.15;100.00
51439;BME280;38816;51.142;-0.974;2024-02-21T04:39:50;100009.63;;;8.16;100.00
51439;BME280;38816;51.142;-0.974;2024-02-21T04:42:16;99995.91;;;8.14;100.00
51439;BME280;38816;51.142;-0.974;2024-02-21T04:44:42;99997.59;;;8.13;100.00
51439;BME280;38816;51.142;-0.974;2024-02-21T04:47:07;99989.88;;;8.10;100.00
51439;BME280;38816;51.142;-0.974;2024-02-21T04:49:33;99990.66;;;8.08;100.00
51439;BME280;38816;51.142;-0.974;2024-02-21T04:51:58;99986.38;;;8.08;100.00
51439;BME280;38816;51.142;-0.974;2024-02-21T04:54:24;99973.63;;;8.10;100.00
51439;BME280;38816;51.142;-0.974;2024-02-21T04:56:50;99965.13;;;8.11;100.00
51439;BME280;38816;51.142;-0.974;2024-02-21T04:59:17;99970.28;;;8.14;100.00
51439;BME280;38816;51.142;-0.974;2024-02-21T05:01:42;99956.53;;;8.09;100.00
51439;BME280;38816;51.142;-0.974;2024-02-21T05:04:08;99960.88;;;8.13;100.00
51439;BME280;38816;51.142;-0.974;2024-02-21T05:06:42;99954.91;;;8.12;100.00
51439;BME280;38816;51.142;-0.974;2024-02-21T05:09:08;99949.75;;;8.11;100.00
51439;BME280;38816;51.142;-0.974;2024-02-21T05:11:37;99934.41;;;8.11;100.00
51439;BME280;38816;51.142;-0.974;2024-02-21T05:14:05;99936.88;;;8.06;100.00
51439;BME280;38816;51.142;-0.974;2024-02-21T05:16:32;99930.91;;;8.07;100.00
51439;BME280;38816;51.142;-0.974;2024-02-21T05:18:57;99920.63;;;8.06;100.00
51439;BME280;38816;51.142;-0.974;2024-02-21T05:21:23;99914.59;;;8.02;100.00
51439;BME280;38816;51.142;-0.974;2024-02-21T05:23:50;99918.00;;;8.03;100.00
51439;BME280;38816;51.142;-0.974;2024-02-21T05:26:22;99906.94;;;8.04;100.00
51439;BME280;38816;51.142;-0.974;2024-02-21T05:28:48;99907.69;;;8.00;100.00
51439;BME280;38816;51.142;-0.974;2024-02-21T05:31:15;99895.75;;;8.00;100.00
51439;BME280;38816;51.142;-0.974;2024-02-21T05:33:41;99898.31;;;7.99;100.00
51439;BME280;38816;51.142;-0.974;2024-02-21T05:36:07;99896.56;;;7.98;100.00
51439;BME280;38816;51.142;-0.974;2024-02-21T05:38:32;99878.59;;;7.95;100.00
51439;BME280;38816;51.142;-0.974;2024-02-21T05:40:58;99881.22;;;7.98;100.00
51439;BME280;38816;51.142;-0.974;2024-02-21T05:43:23;99868.38;;;7.96;100.00
51439;BME280;38816;51.142;-0.974;2024-02-21T05:45:49;99867.50;;;7.94;100.00
51439;BME280;38816;51.142;-0.974;2024-02-21T05:48:14;99853.78;;;7.92;100.00
51439;BME280;38816;51.142;-0.974;2024-02-21T05:50:40;99838.47;;;7.94;100.00
51439;BME280;38816;51.142;-0.974;2024-02-21T05:53:05;99827.38;;;7.93;100.00
51439;BME280;38816;51.142;-0.974;2024-02-21T05:55:31;99809.41;;;7.92;100.00
51439;BME280;38816;51.142;-0.974;2024-02-21T05:57:57;99813.66;;;7.91;100.00
51439;BME280;38816;51.142;-0.974;2024-02-21T06:00:22;99819.63;;;7.90;100.00
51439;BME280;38816;51.142;-0.974;2024-02-21T06:02:48;99811.94;;;7.90;100.00
51439;BME280;38816;51.142;-0.974;2024-02-21T06:05:13;99806.84;;;7.92;100.00
51439;BME280;38816;51.142;-0.974;2024-02-21T06:07:38;99795.75;;;7.90;100.00
51439;BME280;38816;51.142;-0.974;2024-02-21T06:10:05;99790.63;;;7.90;100.00
51439;BME280;38816;51.142;-0.974;2024-02-21T06:12:30;99789.78;;;7.91;100.00
51439;BME280;38816;51.142;-0.974;2024-02-21T06:14:56;99767.59;;;7.91;100.00
51439;BME280;38816;51.142;-0.974;2024-02-21T06:17:21;99770.16;;;7.91;100.00
51439;BME280;38816;51.142;-0.974;2024-02-21T06:19:47;99754.81;;;7.91;100.00
51439;BME280;38816;51.142;-0.974;2024-02-21T06:22:12;99750.59;;;7.93;100.00
51439;BME280;38816;51.142;-0.974;2024-02-21T06:24:38;99738.63;;;7.92;100.00
51439;BME280;38816;51.142;-0.974;2024-02-21T06:27:05;99727.59;;;7.95;100.00
51439;BME280;38816;51.142;-0.974;2024-02-21T06:29:34;99713.91;;;7.93;100.00
51439;BME280;38816;51.142;-0.974;2024-02-21T06:32:00;99725.03;;;7.96;100.00
51439;BME280;38816;51.142;-0.974;2024-02-21T06:34:25;99724.19;;;7.96;100.00
51439;BME280;38816;51.142;-0.974;2024-02-21T06:36:51;99708.91;;;8.00;100.00
51439;BME280;38816;51.142;-0.974;2024-02-21T06:39:16;99703.72;;;7.96;100.00
51439;BME280;38816;51.142;-0.974;2024-02-21T06:41:42;99707.97;;;7.97;100.00
51439;BME280;38816;51.142;-0.974;2024-02-21T06:44:08;99700.34;;;7.98;100.00
51439;BME280;38816;51.142;-0.974;2024-02-21T06:46:33;99693.56;;;8.00;100.00
51439;BME280;38816;51.142;-0.974;2024-02-21T06:49:00;99687.56;;;8.00;100.00
51439;BME280;38816;51.142;-0.974;2024-02-21T06:51:26;99680.88;;;8.06;100.00
51439;BME280;38816;51.142;-0.974;2024-02-21T06:53:51;99677.34;;;8.00;100.00
51439;BME280;38816;51.142;-0.974;2024-02-21T06:56:18;99684.16;;;7.99;100.00
51439;BME280;38816;51.142;-0.974;2024-02-21T06:58:43;99676.47;;;7.98;100.00
51439;BME280;38816;51.142;-0.974;2024-02-21T07:01:09;99677.34;;;8.00;100.00
51439;BME280;38816;51.142;-0.974;2024-02-21T07:03:35;99677.34;;;8.00;100.00
51439;BME280;38816;51.142;-0.974;2024-02-21T07:06:01;99661.97;;;8.00;100.00
51439;BME280;38816;51.142;-0.974;2024-02-21T07:08:27;99656.03;;;8.01;100.00
51439;BME280;38816;51.142;-0.974;2024-02-21T07:10:52;99648.34;;;8.01;100.00
51439;BME280;38816;51.142;-0.974;2024-02-21T07:13:18;99643.22;;;8.01;100.00
51439;BME280;38816;51.142;-0.974;2024-02-21T07:15:43;99644.22;;;8.09;100.00
51439;BME280;38816;51.142;-0.974;2024-02-21T07:18:09;99641.59;;;8.04;100.00
51439;BME280;38816;51.142;-0.974;2024-02-21T07:20:34;99639.00;;;8.03;100.00
51439;BME280;38816;51.142;-0.974;2024-02-21T07:23:03;99629.63;;;8.02;100.00
51439;BME280;38816;51.142;-0.974;2024-02-21T07:25:28;99626.16;;;8.01;100.00
51439;BME280;38816;51.142;-0.974;2024-02-21T07:27:54;99615.13;;;8.02;100.00
51439;BME280;38816;51.142;-0.974;2024-02-21T07:30:19;99610.06;;;8.07;100.00
51439;BME280;38816;51.142;-0.974;2024-02-21T07:32:45;99609.22;;;8.08;100.00
51439;BME280;38816;51.142;-0.974;2024-02-21T07:35:10;99599.84;;;8.10;100.00
51439;BME280;38816;51.142;-0.974;2024-02-21T07:37:37;99593.88;;;8.08;100.00
51439;BME280;38816;51.142;-0.974;2024-02-21T07:40:14;99583.69;;;8.11;100.00
51439;BME280;38816;51.142;-0.974;2024-02-21T07:42:40;99567.47;;;8.10;100.00
51439;BME280;38816;51.142;-0.974;2024-02-21T07:45:07;99568.28;;;8.09;100.00
51439;BME280;38816;51.142;-0.974;2024-02-21T07:47:33;99561.47;;;8.10;100.00
51439;BME280;38816;51.142;-0.974;2024-02-21T07:49:58;99570.88;;;8.11;100.00
51439;BME280;38816;51.142;-0.974;2024-02-21T07:52:24;99558.91;;;8.10;100.00
51439;BME280;38816;51.142;-0.974;2024-02-21T07:54:50;99548.72;;;8.13;100.00
51439;BME280;38816;51.142;-0.974;2024-02-21T07:57:15;99549.63;;;8.17;100.00
51439;BME280;38816;51.142;-0.974;2024-02-21T07:59:41;99547.94;;;8.19;100.00
51439;BME280;38816;51.142;-0.974;2024-02-21T08:02:07;99542.03;;;8.23;100.00
51439;BME280;38816;51.142;-0.974;2024-02-21T08:04:33;99536.09;;;8.25;100.00
51439;BME280;38816;51.142;-0.974;2024-02-21T08:06:58;99525.81;;;8.21;100.00
51439;BME280;38816;51.142;-0.974;2024-02-21T08:09:29;99526.72;;;8.24;100.00
51439;BME280;38816;51.142;-0.974;2024-02-21T08:11:55;99522.41;;;8.23;100.00
51439;BME280;38816;51.142;-0.974;2024-02-21T08:14:21;99525.03;;;8.26;100.00
51439;BME280;38816;51.142;-0.974;2024-02-21T08:16:47;99506.22;;;8.24;100.00
51439;BME280;38816;51.142;-0.974;2024-02-21T08:19:13;99497.69;;;8.25;100.00
51439;BME280;38816;51.142;-0.974;2024-02-21T08:21:38;99505.38;;;8.27;100.00
51439;BME280;38816;51.142;-0.974;2024-02-21T08:24:04;99500.28;;;8.27;100.00
51439;BME280;38816;51.142;-0.974;2024-02-21T08:26:30;99496.88;;;8.28;100.00
51439;BME280;38816;51.142;-0.974;2024-02-21T08:28:56;99502.84;;;8.28;100.00
51439;BME280;38816;51.142;-0.974;2024-02-21T08:31:25;99501.97;;;8.26;100.00
51439;BME280;38816;51.142;-0.974;2024-02-21T08:33:57;99494.28;;;8.25;100.00
51439;BME280;38816;51.142;-0.974;2024-02-21T08:36:28;99484.91;;;8.25;100.00
51439;BME280;38816;51.142;-0.974;2024-02-21T08:38:54;99473.81;;;8.28;100.00
51439;BME280;38816;51.142;-0.974;2024-02-21T08:41:20;99473.81;;;8.28;100.00
51439;BME280;38816;51.142;-0.974;2024-02-21T08:43:48;99460.25;;;8.33;100.00
51439;BME280;38816;51.142;-0.974;2024-02-21T08:46:14;99448.28;;;8.32;100.00
51439;BME280;38816;51.142;-0.974;2024-02-21T08:48:40;99455.94;;;8.29;100.00
51439;BME280;38816;51.142;-0.974;2024-02-21T08:51:05;99461.06;;;8.31;100.00
51439;BME280;38816;51.142;-0.974;2024-02-21T08:53:31;99444.03;;;8.34;100.00
51439;BME280;38816;51.142;-0.974;2024-02-21T08:55:57;99442.44;;;8.38;100.00
51439;BME280;38816;51.142;-0.974;2024-02-21T08:58:29;99423.53;;;8.33;100.00
51439;BME280;38816;51.142;-0.974;2024-02-21T09:01:03;99414.06;;;8.27;100.00
51439;BME280;38816;51.142;-0.974;2024-02-21T09:03:36;99413.22;;;8.25;100.00
51439;BME280;38816;51.142;-0.974;2024-02-21T09:06:01;99426.03;;;8.28;100.00
51439;BME280;38816;51.142;-0.974;2024-02-21T09:08:27;99417.53;;;8.31;100.00
51439;BME280;38816;51.142;-0.974;2024-02-21T09:10:56;99407.28;;;8.29;100.00
51439;BME280;38816;51.142;-0.974;2024-02-21T09:13:22;99410.72;;;8.31;100.00
51439;BME280;38816;51.142;-0.974;2024-02-21T09:15:49;99392.78;;;8.31;100.00
51439;BME280;38816;51.142;-0.974;2024-02-21T09:18:15;99395.34;;;8.33;100.00
51439;BME280;38816;51.142;-0.974;2024-02-21T09:20:42;99389.38;;;8.31;100.00
51439;BME280;38816;51.142;-0.974;2024-02-21T09:23:07;99386.88;;;8.35;100.00
51439;BME280;38816;51.142;-0.974;2024-02-21T09:25:33;99391.97;;;8.35;100.00
51439;BME280;38816;51.142;-0.974;2024-02-21T09:28:00;99368.16;;;8.40;100.00
51439;BME280;38816;51.142;-0.974;2024-02-21T09:30:26;99378.41;;;8.41;100.00
51439;BME280;38816;51.142;-0.974;2024-02-21T09:32:52;99361.34;;;8.39;100.00
51439;BME280;38816;51.142;-0.974;2024-02-21T09:35:18;99351.09;;;8.39;100.00
51439;BME280;38816;51.142;-0.974;2024-02-21T09:37:44;99351.09;;;8.39;100.00
51439;BME280;38816;51.142;-0.974;2024-02-21T09:40:10;99339.13;;;8.38;100.00
51439;BME280;38816;51.142;-0.974;2024-02-21T09:42:40;99336.50;;;8.36;100.00
51439;BME280;38816;51.142;-0.974;2024-02-21T09:45:19;99335.66;;;8.35;100.00
51439;BME280;38816;51.142;-0.974;2024-02-21T09:50:49;99314.25;;;8.29;100.00
51439;BME280;38816;51.142;-0.974;2024-02-21T09:53:15;99302.25;;;8.25;100.00
51439;BME280;38816;51.142;-0.974;2024-02-21T09:55:42;99287.75;;;8.28;100.00
51439;BME280;38816;51.142;-0.974;2024-02-21T09:58:09;99281.81;;;8.29;100.00
51439;BME280;38816;51.142;-0.974;2024-02-21T10:00:36;99278.41;;;8.30;100.00
51439;BME280;38816;51.142;-0.974;2024-02-21T10:03:02;99274.16;;;8.32;100.00
51439;BME280;38816;51.142;-0.974;2024-02-21T10:05:37;99260.53;;;8.33;100.00
51439;BME280;38816;51.142;-0.974;2024-02-21T10:08:04;99257.97;;;8.35;100.00
51439;BME280;38816;51.142;-0.974;2024-02-21T10:10:30;99248.63;;;8.37;100.00
51439;BME280;38816;51.142;-0.974;2024-02-21T10:13:05;99245.22;;;8.36;100.00
51439;BME280;38816;51.142;-0.974;2024-02-21T10:15:30;99229.88;;;8.40;100.00
51439;BME280;38816;51.142;-0.974;2024-02-21T10:18:00;99235.03;;;8.43;100.00
51439;BME280;38816;51.142;-0.974;2024-02-21T10:20:27;99218.81;;;8.45;100.00
51439;BME280;38816;51.142;-0.974;2024-02-21T10:23:03;99197.59;;;8.57;100.00
51439;BME280;38816;51.142;-0.974;2024-02-21T10:25:33;99188.22;;;8.60;100.00
51439;BME280;38816;51.142;-0.974;2024-02-21T10:27:59;99178.88;;;8.67;100.00
51439;BME280;38816;51.142;-0.974;2024-02-21T10:30:24;99177.19;;;8.72;100.00
51439;BME280;38816;51.142;-0.974;2024-02-21T10:32:50;99176.38;;;8.75;100.00
51439;BME280;38816;51.142;-0.974;2024-02-21T10:35:28;99177.19;;;8.69;100.00
51439;BME280;38816;51.142;-0.974;2024-02-21T10:37:55;99168.63;;;8.67;100.00
51439;BME280;38816;51.142;-0.974;2024-02-21T10:40:23;99149.84;;;8.71;100.00
51439;BME280;38816;51.142;-0.974;2024-02-21T10:42:55;99158.44;;;8.79;100.00
51439;BME280;38816;51.142;-0.974;2024-02-21T10:45:23;99155.88;;;8.76;100.00
51439;BME280;38816;51.142;-0.974;2024-02-21T10:47:55;99147.31;;;8.74;100.00
51439;BME280;38816;51.142;-0.974;2024-02-21T10:50:24;99146.50;;;8.80;100.00
51439;BME280;38816;51.142;-0.974;2024-02-21T10:53:09;99143.94;;;8.81;100.00
51439;BME280;38816;51.142;-0.974;2024-02-21T10:55:42;99131.97;;;8.82;100.00
51439;BME280;38816;51.142;-0.974;2024-02-21T10:58:10;99132.88;;;8.88;100.00
51439;BME280;38816;51.142;-0.974;2024-02-21T11:00:37;99129.50;;;8.93;100.00
51439;BME280;38816;51.142;-0.974;2024-02-21T11:03:03;99119.28;;;9.02;100.00
51439;BME280;38816;51.142;-0.974;2024-02-21T11:05:30;99113.28;;;9.04;100.00
51439;BME280;38816;51.142;-0.974;2024-02-21T11:07:57;99105.63;;;9.06;100.00
51439;BME280;38816;51.142;-0.974;2024-02-21T11:10:26;99094.50;;;9.02;100.00
51439;BME280;38816;51.142;-0.974;2024-02-21T11:12:53;99090.22;;;9.03;100.00
51439;BME280;38816;51.142;-0.974;2024-02-21T11:15:25;99088.50;;;9.05;100.00
51439;BME280;38816;51.142;-0.974;2024-02-21T11:17:55;99085.09;;;9.09;100.00
51439;BME280;38816;51.142;-0.974;2024-02-21T11:20:34;99068.84;;;8.99;100.00
51439;BME280;38816;51.142;-0.974;2024-02-21T11:23:00;99068.88;;;9.05;100.00
51439;BME280;38816;51.142;-0.974;2024-02-21T11:25:27;99054.34;;;9.09;100.00
51439;BME280;38816;51.142;-0.974;2024-02-21T11:28:02;99047.50;;;9.08;100.00
51439;BME280;38816;51.142;-0.974;2024-02-21T11:30:31;99046.69;;;9.10;100.00
51439;BME280;38816;51.142;-0.974;2024-02-21T11:33:06;99029.59;;;9.11;100.00
51439;BME280;38816;51.142;-0.974;2024-02-21T11:35:33;99015.09;;;9.19;100.00
51439;BME280;38816;51.142;-0.974;2024-02-21T11:38:11;99018.47;;;9.18;100.00
51439;BME280;38816;51.142;-0.974;2024-02-21T11:40:40;99008.25;;;9.21;100.00
51439;BME280;38816;51.142;-0.974;2024-02-21T11:43:07;98995.44;;;9.26;100.00
51439;BME280;38816;51.142;-0.974;2024-02-21T11:45:33;98989.44;;;9.31;100.00
51439;BME280;38816;51.142;-0.974;2024-02-21T11:47:59;98987.75;;;9.35;100.00
51439;BME280;38816;51.142;-0.974;2024-02-21T11:50:26;98971.50;;;9.39;100.00
51439;BME280;38816;51.142;-0.974;2024-02-21T11:52:54;98957.00;;;9.46;100.00
51439;BME280;38816;51.142;-0.974;2024-02-21T11:55:21;98956.09;;;9.54;100.00
51439;BME280;38816;51.142;-0.974;2024-02-21T11:57:50;98953.56;;;9.53;100.00
51439;BME280;38816;51.142;-0.974;2024-02-21T12:00:17;98951.84;;;9.53;100.00
51439;BME280;38816;51.142;-0.974;2024-02-21T12:02:45;98941.59;;;9.59;100.00
51439;BME280;38816;51.142;-0.974;2024-02-21T12:05:11;98940.72;;;9.57;100.00
51439;BME280;38816;51.142;-0.974;2024-02-21T12:07:37;98923.66;;;9.55;100.00
51439;BME280;38816;51.142;-0.974;2024-02-21T12:10:11;98925.34;;;9.57;100.00
51439;BME280;38816;51.142;-0.974;2024-02-21T12:12:38;98923.63;;;9.58;100.00
51439;BME280;38816;51.142;-0.974;2024-02-21T12:15:05;98909.09;;;9.61;100.00
51439;BME280;38816;51.142;-0.974;2024-02-21T12:17:33;98921.91;;;9.57;100.00
51439;BME280;38816;51.142;-0.974;2024-02-21T12:19:59;98900.53;;;9.58;100.00
51439;BME280;38816;51.142;-0.974;2024-02-21T12:22:25;98886.84;;;9.65;100.00
51439;BME280;38816;51.142;-0.974;2024-02-21T12:24:51;98900.53;;;9.70;100.00
51439;BME280;38816;51.142;-0.974;2024-02-21T12:27:17;98877.41;;;9.75;100.00
51439;BME280;38816;51.142;-0.974;2024-02-21T12:29:42;98868.00;;;9.78;100.00
51439;BME280;38816;51.142;-0.974;2024-02-21T12:32:08;98849.19;;;9.70;100.00
51439;BME280;38816;51.142;-0.974;2024-02-21T12:34:33;98862.88;;;9.75;100.00
51439;BME280;38816;51.142;-0.974;2024-02-21T12:36:59;98844.88;;;9.84;100.00
51439;BME280;38816;51.142;-0.974;2024-02-21T12:39:24;98843.16;;;9.93;100.00
51439;BME280;38816;51.142;-0.974;2024-02-21T12:41:54;98830.31;;;9.96;100.00
51439;BME280;38816;51.142;-0.974;2024-02-21T12:44:21;98821.75;;;9.97;100.00
51439;BME280;38816;51.142;-0.974;2024-02-21T12:46:46;98823.44;;;9.98;100.00
51439;BME280;38816;51.142;-0.974;2024-02-21T12:49:17;98797.75;;;10.01;100.00